Terminal Aerodrome Forecast
Issued by NWS

Home | Current Version | Previous Version | Text Only | Print | Product List | Glossary On
Versions: 1 2 3 4 5 6 7 8 9 10 11 12
000
FTUS45 KGGW 191100
TAFSDY
TAF
KSDY 191123Z 1912/2012 27011KT P6SM SCT120
     FM191600 28011KT P6SM BKN100
     FM191900 30017KT P6SM BKN080
     FM200200 29009KT P6SM SCT100
      AMD LTD TO CLD VIS AND WIND=

USA.gov is the U.S. government's official web portal to all federal, state and local government web resources and services.